createdAt,value
2022-09-02T00:01:02.278Z,20.65
2022-09-02T00:03:31.304Z,20.65
2022-09-02T00:05:58.327Z,20.62
2022-09-02T00:08:24.942Z,20.66
2022-09-02T00:10:52.276Z,20.62
2022-09-02T00:13:20.682Z,20.49
2022-09-02T00:15:48.907Z,20.59
2022-09-02T00:18:18.023Z,20.49
2022-09-02T00:20:47.289Z,20.56
2022-09-02T00:23:15.144Z,20.55
2022-09-02T00:25:42.170Z,20.57
2022-09-02T00:28:08.752Z,20.57
2022-09-02T00:30:35.762Z,20.61
2022-09-02T00:33:02.869Z,20.61
2022-09-02T00:35:29.709Z,20.62
2022-09-02T00:37:56.439Z,20.66
2022-09-02T00:40:23.436Z,20.64
2022-09-02T00:42:51.528Z,20.59
2022-09-02T00:45:20.377Z,20.64
2022-09-02T00:47:50.273Z,20.62
2022-09-02T00:50:20.971Z,20.53
2022-09-02T00:52:53.620Z,20.57
2022-09-02T00:55:24.833Z,20.56
2022-09-02T00:58:00.894Z,20.54
2022-09-02T01:00:35.579Z,20.47
2022-09-02T01:03:08.387Z,20.44
2022-09-02T01:05:43.781Z,20.42
2022-09-02T01:08:10.654Z,20.40
2022-09-02T01:10:37.213Z,20.36
2022-09-02T01:13:10.529Z,20.33
2022-09-02T01:15:43.904Z,20.27
2022-09-02T01:18:16.445Z,20.30
2022-09-02T01:20:43.136Z,20.31
2022-09-02T01:23:10.158Z,20.25
2022-09-02T01:25:37.841Z,20.24
2022-09-02T01:28:10.440Z,20.24
2022-09-02T01:30:42.140Z,20.20
2022-09-02T01:33:09.963Z,20.20
2022-09-02T01:35:36.749Z,20.18
2022-09-02T01:38:04.988Z,20.22
2022-09-02T01:40:32.694Z,20.16
2022-09-02T01:43:07.480Z,20.12
2022-09-02T01:45:36.009Z,20.07
2022-09-02T01:48:04.349Z,20.11
2022-09-02T01:50:32.681Z,20.11
2022-09-02T01:53:01.734Z,20.08
2022-09-02T01:55:28.632Z,20.08
2022-09-02T01:57:55.408Z,20.01
2022-09-02T02:00:23.625Z,19.98
2022-09-02T02:02:50.289Z,19.78
2022-09-02T02:05:17.264Z,19.92
2022-09-02T02:07:45.506Z,19.95
2022-09-02T02:10:15.004Z,19.94
2022-09-02T02:12:42.258Z,19.98
2022-09-02T02:15:13.216Z,19.99
2022-09-02T02:17:39.823Z,19.96
2022-09-02T02:20:08.060Z,19.91
2022-09-02T02:22:35.443Z,19.94
2022-09-02T02:25:02.051Z,19.92
2022-09-02T02:27:29.607Z,19.92
2022-09-02T02:30:00.400Z,19.86
2022-09-02T02:32:27.817Z,19.84
2022-09-02T02:34:54.532Z,19.84
2022-09-02T02:37:25.282Z,19.91
2022-09-02T02:39:52.578Z,19.84
2022-09-02T02:42:19.846Z,19.87
2022-09-02T02:44:46.865Z,19.94
2022-09-02T02:47:13.786Z,19.99
2022-09-02T02:49:43.732Z,19.99
2022-09-02T02:52:11.519Z,19.94
2022-09-02T02:54:39.167Z,20.02
2022-09-02T02:57:06.890Z,19.95
2022-09-02T02:59:33.541Z,19.97
2022-09-02T03:02:00.306Z,19.97
2022-09-02T03:04:27.449Z,20.01
2022-09-02T03:06:54.088Z,19.99
2022-09-02T03:09:21.069Z,19.96
2022-09-02T03:11:48.139Z,19.89
2022-09-02T03:14:15.341Z,19.90
2022-09-02T03:16:43.254Z,19.93
2022-09-02T03:19:09.869Z,19.95
2022-09-02T03:21:39.129Z,19.95
2022-09-02T03:24:08.918Z,19.95
2022-09-02T03:26:35.903Z,19.97
2022-09-02T03:29:03.868Z,19.91
2022-09-02T03:31:31.571Z,19.86
2022-09-02T03:33:59.353Z,19.74
2022-09-02T03:36:33.251Z,19.70
2022-09-02T03:39:00.555Z,19.74
2022-09-02T03:41:29.011Z,19.77
2022-09-02T03:43:57.565Z,19.81
2022-09-02T03:46:24.906Z,19.74
2022-09-02T03:48:52.367Z,19.74
2022-09-02T03:51:22.335Z,19.70
2022-09-02T03:53:49.549Z,19.71
2022-09-02T03:56:18.270Z,19.71
2022-09-02T03:58:47.105Z,19.72
2022-09-02T04:01:15.961Z,19.58
2022-09-02T04:03:44.487Z,19.59
2022-09-02T04:06:12.939Z,19.63
2022-09-02T04:08:41.082Z,19.66
2022-09-02T04:11:09.893Z,19.61
2022-09-02T04:13:37.085Z,19.57
2022-09-02T04:16:31.658Z,19.61
2022-09-02T04:20:14.292Z,19.58
2022-09-02T04:22:59.551Z,19.63
2022-09-02T04:25:28.022Z,19.60
2022-09-02T04:27:55.360Z,19.57
2022-09-02T04:30:24.380Z,19.61
2022-09-02T04:32:52.924Z,19.56
2022-09-02T04:35:19.856Z,19.60
2022-09-02T04:37:49.014Z,19.63
2022-09-02T04:40:16.465Z,19.65
2022-09-02T04:42:43.609Z,19.64
2022-09-02T04:45:11.717Z,19.65
2022-09-02T04:47:39.891Z,19.63
2022-09-02T04:50:07.775Z,19.61
2022-09-02T04:52:36.661Z,19.61
2022-09-02T04:55:03.810Z,19.64
2022-09-02T04:57:32.275Z,19.61
2022-09-02T04:59:59.184Z,19.61
2022-09-02T05:02:26.010Z,19.61
2022-09-02T05:04:52.973Z,19.57
2022-09-02T05:07:27.923Z,19.51
2022-09-02T05:09:59.582Z,19.42
2022-09-02T05:12:31.948Z,19.37
2022-09-02T05:15:01.133Z,19.37
2022-09-02T05:17:32.984Z,19.43
2022-09-02T05:20:00.288Z,19.47
2022-09-02T05:22:29.365Z,19.52
2022-09-02T05:24:57.887Z,19.43
2022-09-02T05:27:25.246Z,19.45
2022-09-02T05:29:59.432Z,19.60
2022-09-02T05:32:28.121Z,19.62
2022-09-02T05:34:56.108Z,19.72
2022-09-02T05:37:24.460Z,19.69
2022-09-02T05:39:52.098Z,19.78
2022-09-02T05:42:20.582Z,19.90
2022-09-02T05:44:49.407Z,20.05
2022-09-02T05:47:19.499Z,20.10
2022-09-02T05:49:46.281Z,20.23
2022-09-02T05:52:15.166Z,20.35
2022-09-02T05:54:49.296Z,20.39
2022-09-02T05:57:18.806Z,20.36
2022-09-02T05:59:56.880Z,20.32
2022-09-02T06:02:29.383Z,20.30
2022-09-02T06:04:56.379Z,20.32
2022-09-02T06:07:26.283Z,20.26
2022-09-02T06:09:54.210Z,20.27
2022-09-02T06:12:24.949Z,20.25
2022-09-02T06:14:51.820Z,20.21
2022-09-02T06:17:20.921Z,20.18
2022-09-02T06:19:52.567Z,20.17
2022-09-02T06:22:22.130Z,20.18
2022-09-02T06:24:49.099Z,20.29
2022-09-02T06:27:20.678Z,20.13
2022-09-02T06:29:50.769Z,20.21
2022-09-02T06:32:20.469Z,20.27
2022-09-02T06:34:48.908Z,20.32
2022-09-02T06:37:16.050Z,20.47
2022-09-02T06:39:43.886Z,20.34
2022-09-02T06:42:15.156Z,20.34
2022-09-02T06:45:03.736Z,20.45
2022-09-02T06:47:31.675Z,20.48
2022-09-02T06:49:59.937Z,20.48
2022-09-02T06:52:27.019Z,20.44
2022-09-02T06:54:54.880Z,20.48
2022-09-02T06:57:21.587Z,20.66
2022-09-02T06:59:51.965Z,20.69
2022-09-02T07:02:20.653Z,20.69
2022-09-02T07:05:06.648Z,20.75
2022-09-02T07:07:39.034Z,20.87
2022-09-02T07:10:13.552Z,21.00
2022-09-02T07:12:44.575Z,21.07
2022-09-02T07:15:14.758Z,20.95
2022-09-02T07:17:42.733Z,20.94
2022-09-02T07:20:14.142Z,21.09
2022-09-02T07:22:44.885Z,21.05
2022-09-02T07:25:14.610Z,21.09
2022-09-02T07:27:43.501Z,21.08
2022-09-02T07:30:12.541Z,21.21
2022-09-02T07:32:41.007Z,21.25
2022-09-02T07:35:09.249Z,21.22
2022-09-02T07:37:36.329Z,21.33
2022-09-02T07:40:07.503Z,21.40
2022-09-02T07:42:34.306Z,21.47
2022-09-02T07:45:01.296Z,21.64
2022-09-02T07:47:28.294Z,21.79
2022-09-02T07:52:41.937Z,21.95
2022-09-02T07:55:14.739Z,22.25
2022-09-02T07:57:42.813Z,22.41
2022-09-02T08:00:12.454Z,22.49
2022-09-02T08:02:43.514Z,22.62
2022-09-02T08:05:16.074Z,22.72
2022-09-02T08:07:42.662Z,22.73
2022-09-02T08:10:11.011Z,22.71
2022-09-02T08:12:38.279Z,22.59
2022-09-02T08:15:05.602Z,22.76
2022-09-02T08:17:32.718Z,22.81
2022-09-02T08:19:59.255Z,23.07
2022-09-02T08:22:27.039Z,23.23
2022-09-02T08:24:53.674Z,23.24
2022-09-02T08:27:20.342Z,23.27
2022-09-02T08:29:46.881Z,23.37
2022-09-02T08:32:13.815Z,23.24
2022-09-02T08:34:40.406Z,23.17
2022-09-02T08:37:07.235Z,23.33
2022-09-02T08:39:33.892Z,23.37
2022-09-02T08:42:32.085Z,23.50
2022-09-02T08:45:30.294Z,23.77
2022-09-02T08:48:45.185Z,23.96
2022-09-02T08:51:20.101Z,23.94
2022-09-02T08:54:03.239Z,23.99
2022-09-02T08:56:31.419Z,23.87
2022-09-02T08:59:02.178Z,23.94
2022-09-02T09:02:08.137Z,23.85
2022-09-02T09:04:59.742Z,23.98
2022-09-02T09:07:26.380Z,23.84
2022-09-02T09:10:05.749Z,23.84
2022-09-02T09:13:14.520Z,23.82
2022-09-02T09:15:55.713Z,23.91
2022-09-02T09:18:40.392Z,23.91
2022-09-02T09:21:08.214Z,23.93
2022-09-02T09:23:41.371Z,23.95
2022-09-02T09:26:11.398Z,24.21
2022-09-02T09:28:43.601Z,24.49
2022-09-02T09:31:16.878Z,24.42
2022-09-02T09:34:02.902Z,24.67
2022-09-02T09:36:42.189Z,24.82
2022-09-02T09:39:31.534Z,25.10
2022-09-02T09:42:04.292Z,25.20
2022-09-02T09:44:48.155Z,25.15
2022-09-02T09:47:22.665Z,25.15
2022-09-02T09:49:51.554Z,25.31
2022-09-02T09:52:30.799Z,25.36
2022-09-02T09:55:06.676Z,25.60
2022-09-02T09:57:35.711Z,25.80
2022-09-02T10:00:21.733Z,25.69
2022-09-02T10:02:54.482Z,25.73
2022-09-02T10:05:36.482Z,25.77
2022-09-02T10:08:23.619Z,25.66
2022-09-02T10:11:20.153Z,25.77
2022-09-02T10:13:46.683Z,25.87
2022-09-02T10:16:21.081Z,25.73
2022-09-02T10:18:56.053Z,25.80
2022-09-02T10:21:34.774Z,25.97
2022-09-02T10:24:24.572Z,26.07
2022-09-02T10:26:57.359Z,26.04
2022-09-02T10:29:51.060Z,25.98
2022-09-02T10:32:50.478Z,25.98
2022-09-02T10:35:38.650Z,26.13
2022-09-02T10:38:42.527Z,26.17
2022-09-02T10:44:38.150Z,25.74
2022-09-02T10:47:19.794Z,25.89
2022-09-02T10:50:07.785Z,26.01
2022-09-02T10:52:52.923Z,26.01
2022-09-02T10:55:23.113Z,25.85
2022-09-02T10:57:58.079Z,26.02
2022-09-02T11:00:28.081Z,26.17
2022-09-02T11:03:18.092Z,26.15
2022-09-02T11:05:52.835Z,26.14
2022-09-02T11:08:40.386Z,25.85
2022-09-02T11:11:29.324Z,25.80
2022-09-02T11:14:20.973Z,25.94
2022-09-02T11:17:02.901Z,25.67
2022-09-02T11:19:41.166Z,25.78
2022-09-02T11:22:17.048Z,25.94
2022-09-02T11:24:51.896Z,26.17
2022-09-02T11:27:41.686Z,26.27
2022-09-02T11:30:15.180Z,26.40
2022-09-02T11:32:41.782Z,26.45
2022-09-02T11:35:15.878Z,26.45
2022-09-02T11:37:49.343Z,26.48
2022-09-02T11:40:35.094Z,26.36
2022-09-02T11:43:07.922Z,26.40
2022-09-02T11:45:44.194Z,26.53
2022-09-02T11:48:30.850Z,26.59
2022-09-02T11:51:45.650Z,26.43
2022-09-02T11:54:19.261Z,26.55
2022-09-02T11:56:56.867Z,26.55
2022-09-02T11:59:52.239Z,26.56
2022-09-02T12:02:47.969Z,26.48
2022-09-02T12:05:30.347Z,26.64
2022-09-02T12:08:05.548Z,26.67
2022-09-02T12:10:45.222Z,26.76
2022-09-02T12:13:41.078Z,26.62
2022-09-02T12:16:16.618Z,26.53
2022-09-02T12:18:44.760Z,26.56
2022-09-02T12:21:16.589Z,26.67
2022-09-02T12:23:53.654Z,26.68
2022-09-02T12:26:21.820Z,26.74
2022-09-02T12:28:50.824Z,26.77
2022-09-02T12:31:42.586Z,26.75
2022-09-02T12:34:46.889Z,26.82
2022-09-02T12:37:51.944Z,26.91
2022-09-02T12:40:29.801Z,26.73
2022-09-02T12:43:04.045Z,26.58
2022-09-02T12:45:32.413Z,26.61
2022-09-02T12:48:12.240Z,26.72
2022-09-02T12:50:45.369Z,26.79
2022-09-02T12:53:24.075Z,26.78
2022-09-02T12:55:57.998Z,26.64
2022-09-02T12:58:25.368Z,26.56
2022-09-02T13:00:51.834Z,26.61
2022-09-02T13:03:39.940Z,26.68
2022-09-02T13:06:17.320Z,26.67
2022-09-02T13:09:06.003Z,26.83
2022-09-02T13:12:10.075Z,26.78
2022-09-02T13:14:42.654Z,26.62
2022-09-02T13:17:36.540Z,26.56
2022-09-02T13:20:41.245Z,26.62
2022-09-02T13:23:17.003Z,26.58
2022-09-02T13:26:39.149Z,26.50
2022-09-02T13:29:45.227Z,26.58
2022-09-02T13:32:17.782Z,26.57
2022-09-02T13:34:46.962Z,26.66
2022-09-02T13:37:33.711Z,26.53
2022-09-02T13:40:05.411Z,26.63
2022-09-02T13:42:33.134Z,26.69
2022-09-02T13:45:10.841Z,26.75
2022-09-02T13:47:37.685Z,26.78
2022-09-02T13:50:06.192Z,26.62
2022-09-02T13:53:34.533Z,26.53
2022-09-02T13:55:20.748Z,26.54
2022-09-02T13:58:00.343Z,26.67
2022-09-02T14:00:32.511Z,26.73
2022-09-02T14:03:08.580Z,26.83
2022-09-02T14:05:38.205Z,26.73
2022-09-02T14:08:11.200Z,26.83
2022-09-02T14:10:41.309Z,26.68
2022-09-02T14:13:09.962Z,26.62
2022-09-02T14:15:37.114Z,26.67
2022-09-02T14:18:19.075Z,26.88
2022-09-02T14:21:15.716Z,26.94
2022-09-02T14:23:51.031Z,26.73
2022-09-02T14:26:44.414Z,26.73
2022-09-02T14:29:17.027Z,26.73
2022-09-02T14:31:44.932Z,26.72
2022-09-02T14:34:37.709Z,26.77
2022-09-02T14:37:15.821Z,26.72
2022-09-02T14:40:12.692Z,26.81
2022-09-02T14:43:12.235Z,26.82
2022-09-02T14:45:41.590Z,26.73
2022-09-02T14:48:20.777Z,26.77
2022-09-02T14:50:48.390Z,26.75
2022-09-02T14:53:22.309Z,26.58
2022-09-02T14:55:54.362Z,26.72
2022-09-02T14:58:24.801Z,26.81
2022-09-02T15:00:59.451Z,26.79
2022-09-02T15:03:26.959Z,26.74
2022-09-02T15:05:53.931Z,26.88
2022-09-02T15:08:21.417Z,26.81
2022-09-02T15:10:49.001Z,26.80
2022-09-02T15:13:27.216Z,26.73
2022-09-02T15:15:55.496Z,26.73
2022-09-02T15:18:23.380Z,26.80
2022-09-02T15:20:50.181Z,26.75
2022-09-02T15:23:16.919Z,26.75
2022-09-02T15:25:43.549Z,26.59
2022-09-02T15:28:11.169Z,26.55
2022-09-02T15:30:37.813Z,26.57
2022-09-02T15:33:06.182Z,26.66
2022-09-02T15:35:34.081Z,26.74
2022-09-02T15:38:04.520Z,26.72
2022-09-02T15:40:31.817Z,26.58
2022-09-02T15:43:00.008Z,26.61
2022-09-02T15:45:28.003Z,26.68
2022-09-02T15:47:57.420Z,26.65
2022-09-02T15:50:24.282Z,26.72
2022-09-02T15:52:53.973Z,26.66
2022-09-02T15:55:24.891Z,26.60
2022-09-02T15:57:55.924Z,26.52
2022-09-02T16:00:22.601Z,26.53
2022-09-02T16:02:49.816Z,26.45
2022-09-02T16:05:16.438Z,26.46
2022-09-02T16:07:43.248Z,26.45
2022-09-02T16:10:10.512Z,26.43
2022-09-02T16:12:37.283Z,26.46
2022-09-02T16:15:04.184Z,26.60
2022-09-02T16:17:30.778Z,26.65
2022-09-02T16:19:57.288Z,26.69
2022-09-02T16:22:23.851Z,26.58
2022-09-02T16:24:50.997Z,26.43
2022-09-02T16:27:39.513Z,26.44
2022-09-02T16:30:06.670Z,26.45
2022-09-02T16:32:33.210Z,26.51
2022-09-02T16:34:59.802Z,26.62
2022-09-02T16:37:26.399Z,26.60
2022-09-02T16:39:53.096Z,26.59
2022-09-02T16:42:19.753Z,26.51
2022-09-02T16:44:51.515Z,26.47
2022-09-02T16:47:18.460Z,26.35
2022-09-02T16:49:46.323Z,26.31
2022-09-02T16:52:13.330Z,26.24
2022-09-02T16:54:41.022Z,26.29
2022-09-02T16:57:08.284Z,26.31
2022-09-02T16:59:35.134Z,26.37
2022-09-02T17:02:01.880Z,26.36
2022-09-02T17:04:29.481Z,26.34
2022-09-02T17:06:56.690Z,26.30
2022-09-02T17:09:23.300Z,26.30
2022-09-02T17:11:49.944Z,26.14
2022-09-02T17:14:21.570Z,26.17
2022-09-02T17:16:50.334Z,26.13
2022-09-02T17:19:21.908Z,26.05
2022-09-02T17:21:53.863Z,26.00
2022-09-02T17:24:24.200Z,25.99
2022-09-02T17:26:55.511Z,26.02
2022-09-02T17:32:11.559Z,25.97
2022-09-02T17:34:38.118Z,25.80
2022-09-02T17:37:05.323Z,25.78
2022-09-02T17:39:33.788Z,25.70
2022-09-02T17:42:00.779Z,25.62
2022-09-02T17:44:36.156Z,25.69
2022-09-02T17:47:14.154Z,25.64
2022-09-02T17:49:44.931Z,25.54
2022-09-02T17:52:14.697Z,25.60
2022-09-02T17:54:41.727Z,25.63
2022-09-02T17:57:17.386Z,25.58
2022-09-02T17:59:49.929Z,25.60
2022-09-02T18:02:42.299Z,25.41
2022-09-02T18:05:32.540Z,25.43
2022-09-02T18:08:11.678Z,25.29
2022-09-02T18:10:57.315Z,25.24
2022-09-02T18:13:48.161Z,25.22
2022-09-02T18:16:40.141Z,25.18
2022-09-02T18:19:21.729Z,25.08
2022-09-02T18:22:07.464Z,25.01
2022-09-02T18:24:46.251Z,25.01
2022-09-02T18:27:31.811Z,24.94
2022-09-02T18:29:58.372Z,24.90
2022-09-02T18:32:27.770Z,24.84
2022-09-02T18:35:21.802Z,24.79
2022-09-02T18:37:59.195Z,24.76
2022-09-02T18:40:56.957Z,24.71
2022-09-02T18:43:59.593Z,24.65
2022-09-02T18:46:34.096Z,24.55
2022-09-02T18:49:03.740Z,24.46
2022-09-02T18:51:40.876Z,24.44
2022-09-02T18:54:18.765Z,24.45
2022-09-02T18:56:53.165Z,24.35
2022-09-02T18:59:28.940Z,24.32
2022-09-02T19:01:57.753Z,24.27
2022-09-02T19:04:29.392Z,24.20
2022-09-02T19:07:16.672Z,24.17
2022-09-02T19:09:43.531Z,24.15
2022-09-02T19:12:10.929Z,24.13
2022-09-02T19:14:40.691Z,24.04
2022-09-02T19:17:09.328Z,24.02
2022-09-02T19:19:35.885Z,24.00
2022-09-02T19:22:10.977Z,23.97
2022-09-02T19:24:50.695Z,23.93
2022-09-02T19:27:20.539Z,23.88
2022-09-02T19:29:51.339Z,23.84
2022-09-02T19:32:23.386Z,23.79
2022-09-02T19:34:49.908Z,23.75
2022-09-02T19:37:16.832Z,23.68
2022-09-02T19:39:43.671Z,23.65
2022-09-02T19:42:10.871Z,23.63
2022-09-02T19:44:37.874Z,23.61
2022-09-02T19:49:51.977Z,23.52
2022-09-02T19:52:20.778Z,23.49
2022-09-02T19:54:47.358Z,23.42
2022-09-02T19:57:13.923Z,23.39
2022-09-02T19:59:40.546Z,23.37
2022-09-02T20:02:07.231Z,23.33
2022-09-02T20:04:34.549Z,23.30
2022-09-02T20:07:01.997Z,23.29
2022-09-02T20:09:29.334Z,23.25
2022-09-02T20:11:56.319Z,23.19
2022-09-02T20:14:23.000Z,23.17
2022-09-02T20:16:57.141Z,23.13
2022-09-02T20:19:23.967Z,23.08
2022-09-02T20:21:53.413Z,23.13
2022-09-02T20:24:31.157Z,23.07
2022-09-02T20:27:16.661Z,23.04
2022-09-02T20:30:08.460Z,23.01
2022-09-02T20:32:58.330Z,22.98
2022-09-02T20:35:33.959Z,22.91
2022-09-02T20:38:23.991Z,22.88
2022-09-02T20:41:16.766Z,22.83
2022-09-02T20:44:13.145Z,22.73
2022-09-02T20:47:02.372Z,22.73
2022-09-02T20:50:02.356Z,22.67
2022-09-02T20:53:16.687Z,22.60
2022-09-02T20:56:09.447Z,22.60
2022-09-02T20:58:57.299Z,22.54
2022-09-02T21:01:28.260Z,22.53
2022-09-02T21:04:05.858Z,22.48
2022-09-02T21:06:36.567Z,22.48
2022-09-02T21:09:21.092Z,22.39
2022-09-02T21:11:58.504Z,22.42
2022-09-02T21:14:33.348Z,22.34
2022-09-02T21:17:05.389Z,22.35
2022-09-02T21:19:41.448Z,22.33
2022-09-02T21:22:18.596Z,22.33
2022-09-02T21:24:59.788Z,22.28
2022-09-02T21:27:37.321Z,22.25
2022-09-02T21:30:09.566Z,22.22
2022-09-02T21:32:52.648Z,22.16
2022-09-02T21:35:27.415Z,22.15
2022-09-02T21:38:01.912Z,22.07
2022-09-02T21:41:00.546Z,22.09
2022-09-02T21:43:34.541Z,22.06
2022-09-02T21:46:12.848Z,22.06
2022-09-02T21:48:59.752Z,21.98
2022-09-02T21:51:39.007Z,21.94
2022-09-02T21:54:53.582Z,21.90
2022-09-02T21:57:45.277Z,21.88
2022-09-02T22:00:18.480Z,21.80
2022-09-02T22:03:23.525Z,21.82
2022-09-02T22:06:07.000Z,21.81
2022-09-02T22:09:02.639Z,21.82
2022-09-02T22:12:04.670Z,21.76
2022-09-02T22:14:33.942Z,21.73
2022-09-02T22:17:10.036Z,21.68
2022-09-02T22:19:39.158Z,21.69
2022-09-02T22:22:10.613Z,21.66
2022-09-02T22:24:39.500Z,21.66
2022-09-02T22:27:25.507Z,21.54
2022-09-02T22:30:10.415Z,21.50
2022-09-02T22:33:06.790Z,21.46
2022-09-02T22:35:45.099Z,21.41
2022-09-02T22:38:16.687Z,21.40
2022-09-02T22:40:49.529Z,21.39
2022-09-02T22:43:21.852Z,21.31
2022-09-02T22:46:12.976Z,21.32
2022-09-02T22:49:04.610Z,21.26
2022-09-02T22:52:03.207Z,21.26
2022-09-02T22:54:31.950Z,21.22
2022-09-02T22:57:12.672Z,21.20
2022-09-02T23:00:10.647Z,21.20
2022-09-02T23:03:09.546Z,21.19
2022-09-02T23:06:17.417Z,21.14
2022-09-02T23:08:44.340Z,21.18
2022-09-02T23:11:25.052Z,21.22
2022-09-02T23:14:19.214Z,21.19
2022-09-02T23:17:11.038Z,21.18
2022-09-02T23:20:00.165Z,21.14
2022-09-02T23:22:45.501Z,21.15
2022-09-02T23:25:24.351Z,21.06
2022-09-02T23:28:09.886Z,21.03
2022-09-02T23:30:49.113Z,21.01
2022-09-02T23:33:50.847Z,20.98
2022-09-02T23:36:17.393Z,20.82
2022-09-02T23:39:19.051Z,20.89
2022-09-02T23:41:46.846Z,20.83
2022-09-02T23:44:14.231Z,20.84
2022-09-02T23:47:03.008Z,20.82
2022-09-02T23:50:05.620Z,20.81
2022-09-02T23:52:45.585Z,20.80
2022-09-02T23:55:17.332Z,20.82
2022-09-02T23:58:23.588Z,20.84
